FVYB weather

Yomba Airport
Yomba, Mashonaland West Province, Zimbabwe

Public forecast

Using degrees Celsius for public forecast. Weather courtesy of forecast.io.

Closest aviation weather report (METAR) to Yomba Airport

Closest report is Robert Gabriel Mugabe International Airport, 71.2 nm (131.9 km) SSE. Retrieved 2019/10/23 09:00 UTC (11 minutes ago):

FVRG 230900Z 04017KT 350V080 CAVOK 30/11 Q1020 NOSIG

Closest aviation forecast (TAF) to Yomba Airport

Forecast is more than 12 hours old.

Closest forecast is Robert Gabriel Mugabe International Airport, 71.2 nm (131.9 km) SSE. Retrieved 2019-10-19 00:00 UTC (4 days ago):

TAF FBSK 182100Z 1900/2006 23010KT CAVOK TAF FVRG 182200Z 1900/2006 VRB03KT CAVOK